Welcome to our Virtual Airline
Sign-in:

Flight MFC94101

  • Submitted By: James Smith
  • Departure Airport: Yes Bay Lodge SPB (78K)
  • Arrival Airport: Bell Island Hot Springs (KBE)
  • Aircraft: A-1C HUSKY (NA1CMM)
  • Flight Time: 00.09.46
  • Date Submitted: 21/10/12
  • Route: STOP BPC1
  • Status: Accepted
Flight Details
Gross Revenue:
(250 load / $ 11.00 per unit
$ 2, 750.00
Fuel Cost:
(2.26796 fuel used @ 5.1 / unit)
$ 11.57

Additional Log Information:

View Log

[16:32] ----- Flight Opened -----
[16:32] Cigar Box - 1.1.4.0
[16:32] FS:
[16:32] FSUIPC: v7.21
[16:32] Flight Number: MFC94101
[16:32] FS Aircraft: ASOBO HUSKY A1C RTMM Amphibian
[16:32] FS Model: Husky
[16:32] FS Type: Husky
[16:32] Departure: 78K
[16:32] Arrival: KBE
[16:32] Flight Level: 4500
[16:32] Flight Type: H
[16:32] Passengers: 0
[16:32] FOB: 156 lbs
[16:32] Gate: n/a
[16:32] NOTE: Parking Brake Ignored
[16:32] Crash Detection: Disabled
[16:32] Crash Detection Aircraft: Disabled
[16:32] Engines: 1 Piston
[16:32] NOTE: Boarding has started
[16:32] Landing Gear: Retracted
[16:32] Engine 1: Started
[16:32] Main Door Closed
[16:32] COM1: 122.90
[16:32] COM2: 124.85
[16:32] Transponder: 7000
[16:32] NAV1: 110.50
[16:32] NAV2: 110.50
[16:32] ADF1: 890.0
[16:32] ADF2: 890.0
[16:32] Navigation Mode: GPS
[16:32] Navigation Mode: GPS
[16:33] Flaps: Position 1
[16:33] NOTE: Taxi started
[16:33] NOTE: ----- TAKE OFF -----
[16:33] GS: 33 knots
[16:33] TAS: 39 knots
[16:33] IAS: 38 knots
[16:33] VS: -16 fpm
[16:33] FOB: 156 lbs
[16:33] Heading: 279°
[16:33] Pitch: 3°
[16:33] Bank: 0°
[16:33] Aircraft Weight: 2140.58 lbs
[16:33] Nearest Airport: GF21
[16:33] Distance: 0.79 miles
[16:33] Runway: ???
[16:33] Ground Surface: Water
[16:33] Ground Condition: Normal
[16:33] NOTE: Weather Report
[16:33] Wind Heading: 248°
[16:33] Wind Speed: 7 knots
[16:33] OAT: 15° C
[16:33] TAT: 15° C
[16:33] Precipitation: None
[16:33] Dew Point: 0° C
[16:33] Visibility: 83 miles
[16:33] METAR:
[16:33] NOTE: Climb started
[16:33] View Mode: Virtual Cockpit
[16:33] Stall: Encountered
[16:33] GS: 69 knots
[16:33] TAS: 65 knots
[16:33] IAS: 65 knots
[16:33] VS: -137 fpm
[16:33] Flaps: Position 0
[16:33] GS: 71 knots
[16:33] TAS: 63 knots
[16:33] IAS: 63 knots
[16:33] VS: 123 fpm
[16:34] Stall: Corrected
[16:34] GS: 71 knots
[16:34] TAS: 65 knots
[16:34] IAS: 64 knots
[16:34] VS: 87 fpm
[16:36] Stall: Encountered
[16:36] GS: 68 knots
[16:36] TAS: 59 knots
[16:36] IAS: 59 knots
[16:36] VS: 616 fpm
[16:36] Stall: Corrected
[16:36] GS: 73 knots
[16:36] TAS: 63 knots
[16:36] IAS: 62 knots
[16:36] VS: -429 fpm
[16:36] Stall: Encountered
[16:36] GS: 83 knots
[16:36] TAS: 72 knots
[16:36] IAS: 71 knots
[16:36] VS: -1687 fpm
[16:36] Stall: Corrected
[16:36] GS: 83 knots
[16:36] TAS: 72 knots
[16:36] IAS: 71 knots
[16:36] VS: -629 fpm
[16:37] Flaps: Position 1
[16:37] GS: 77 knots
[16:37] TAS: 73 knots
[16:37] IAS: 73 knots
[16:37] VS: -903 fpm
[16:37] Flaps: Position 2
[16:37] GS: 68 knots
[16:37] TAS: 62 knots
[16:37] IAS: 62 knots
[16:37] VS: -625 fpm
[16:38] Stall: Encountered
[16:38] GS: 64 knots
[16:38] TAS: 57 knots
[16:38] IAS: 57 knots
[16:38] VS: -316 fpm
[16:38] Stall: Corrected
[16:38] GS: 62 knots
[16:38] TAS: 56 knots
[16:38] IAS: 56 knots
[16:38] VS: -105 fpm
[16:38] Stall: Encountered
[16:38] GS: 60 knots
[16:38] TAS: 55 knots
[16:38] IAS: 55 knots
[16:38] VS: -142 fpm
[16:38] NOTE: ----- LANDED -----
[16:38] Landing Rate: -299.89 fpm
[16:38] GS: 56 knots
[16:38] TAS: 51 knots
[16:38] IAS: 50 knots
[16:38] VS: -299 fpm
[16:38] FOB: 153 lbs
[16:38] Heading: 36°
[16:38] Pitch: 6°
[16:38] Bank: 0°
[16:38] Aircraft Weight: 2137.65 lbs
[16:38] Nearest Airport: BPC1
[16:38] Distance: 0.14 miles
[16:38] Runway: ???
[16:38] Ground Surface: Water
[16:38] Ground Condition: Normal
[16:38] NOTE: Weather Report
[16:38] Wind Heading: 242°
[16:38] Wind Speed: 6 knots
[16:38] OAT: 15° C
[16:38] TAT: 15° C
[16:38] Precipitation: None
[16:38] Dew Point: 0° C
[16:38] Visibility: 83 miles
[16:38] METAR: KBEC 122015Z AUTO 12013G18KT 10SM VCTS BKN065 BKN075 BKN090 23/08 A2979 RMK AO2 LTG DSNT SE W AND NW T02300081 KBEA 121955Z AUTO 15014G21KT 10SM SCT028 BKN038 OVC060 32/28 A2979 RMK AO2 LTG DSNT N AND NW T03160275 KBED 121951Z 20004KT 10SM CLR 23/14 A3004 RMK AO2 SLP184 T02330144 KBEH 122019Z AUTO 24011KT 9SM OVC010 18/16 A2990 RMK AO2 CIG 009V013 T01830161
[16:38] View Mode: Virtual Cockpit
[16:38] Stall: Corrected
[16:38] GS: 56 knots
[16:38] TAS: 50 knots
[16:38] IAS: 50 knots
[16:38] VS: -217 fpm
[16:38] NOTE: Taxi started
[16:38] Engine 1: Stopped
[16:39] Slew Mode: Activated
[16:39] Slew Mode: Deactivated
[16:39] Flaps: Position 1
[16:39] Engine 1: Started
[16:40] Flaps: Position 0
[16:40] GS: 71 knots
[16:40] TAS: 65 knots
[16:40] IAS: 65 knots
[16:40] VS: 821 fpm
[16:40] View Mode: Virtual Cockpit
[16:40] Flaps: Position 1
[16:40] GS: 73 knots
[16:40] TAS: 66 knots
[16:40] IAS: 66 knots
[16:40] VS: 1055 fpm
[16:40] Flaps: Position 2
[16:40] GS: 75 knots
[16:40] TAS: 66 knots
[16:40] IAS: 65 knots
[16:40] VS: 874 fpm
[16:42] NOTE: ----- LANDED -----
[16:42] Landing Rate: -439.84 fpm
[16:42] GS: 60 knots
[16:42] TAS: 55 knots
[16:42] IAS: 56 knots
[16:42] VS: -437 fpm
[16:42] FOB: 151 lbs
[16:42] Heading: 24°
[16:42] Pitch: 6°
[16:42] Bank: 1°
[16:42] Aircraft Weight: 2135.66 lbs
[16:42] Nearest Airport: KBE
[16:42] Distance: 0.74 miles
[16:42] Runway: ???
[16:42] Ground Surface: Water
[16:42] Ground Condition: Normal
[16:42] NOTE: Weather Report
[16:42] Wind Heading: 251°
[16:42] Wind Speed: 6 knots
[16:42] OAT: 15° C
[16:42] TAT: 15° C
[16:42] Precipitation: None
[16:42] Dew Point: 0° C
[16:42] Visibility: 83 miles
[16:42] METAR: KBEC 122015Z AUTO 12013G18KT 10SM VCTS BKN065 BKN075 BKN090 23/08 A2979 RMK AO2 LTG DSNT SE W AND NW T02300081 KBEA 121955Z AUTO 15014G21KT 10SM SCT028 BKN038 OVC060 32/28 A2979 RMK AO2 LTG DSNT N AND NW T03160275 KBED 121951Z 20004KT 10SM CLR 23/14 A3004 RMK AO2 SLP184 T02330144 KBEH 122019Z AUTO 24011KT 9SM OVC010 18/16 A2990 RMK AO2 CIG 009V013 T01830161
[16:42] View Mode: Virtual Cockpit
[16:43] Engine 1: Stopped
[16:43] Gate: n/a
[16:43] NOTE: Flight Completed
[16:43] FS Aircraft: ASOBO HUSKY A1C RTMM Amphibian
[16:43] FS Model: Husky
[16:43] FS Type: Husky
[16:43] FOB: 151 lbs
[16:43] Fuel Used: 5 lbs
[16:43] Flight Time: 00:09:46
[16:43] Flight Time (Dawn): 00:00:00
[16:43] Flight Time (Day): 00:09:46
[16:43] Flight Time (Dusk): 00:00:00
[16:43] Flight Time (Night): 00:00:00
[16:43] Total Landings: 2
[16:43] MaxSim Rate: 1x
[16:43] Cigar Box - 1.1.4.0
[16:43] ----- Flight Closed -----

Route Map